Time;durP1;ratioP1;P1;durP2;ratioP2;P2;SDS_P1;SDS_P2;PMS_P1;PMS_P2;Temp;Humidity;BMP_temperature;BMP_pressure;BME280_temperature;BME280_humidity;BME280_pressure;Samples;Min_cycle;Max_cycle;Signal;HPM_P1;HPM_P2
2022/08/21 00:00:51;;;;;;;4.15;2.55;;;21.30;99.90;;;;;;4839007;29;20046;-78
2022/08/21 00:03:19;;;;;;;4.28;2.70;;;21.30;99.90;;;;;;4828392;29;20115;-78
2022/08/21 00:05:49;;;;;;;3.75;2.38;;;21.30;99.90;;;;;;4826359;29;20046;-78
2022/08/21 00:08:18;;;;;;;3.70;2.50;;;21.30;99.90;;;;;;4844622;29;20037;-78
2022/08/21 00:10:47;;;;;;;5.35;2.33;;;21.30;99.90;;;;;;4825280;29;20056;-78
2022/08/21 00:13:15;;;;;;;5.47;2.20;;;21.30;99.90;;;;;;4827260;29;20391;-78
2022/08/21 00:15:45;;;;;;;7.13;3.65;;;21.30;99.90;;;;;;4811104;29;20050;-77
2022/08/21 00:18:12;;;;;;;3.78;2.30;;;21.30;99.90;;;;;;4844168;29;20053;-77
2022/08/21 00:20:42;;;;;;;3.97;2.17;;;21.20;99.90;;;;;;4843846;29;20048;-77
2022/08/21 00:23:09;;;;;;;3.55;2.33;;;21.20;99.90;;;;;;4826533;29;20046;-77
2022/08/21 00:25:37;;;;;;;3.08;2.55;;;21.20;99.90;;;;;;4838748;29;20046;-77
2022/08/21 00:28:06;;;;;;;3.65;2.40;;;21.20;99.90;;;;;;4844534;29;20450;-78
2022/08/21 00:30:33;;;;;;;2.83;2.10;;;21.20;99.90;;;;;;4841552;29;20062;-77
2022/08/21 00:33:04;;;;;;;3.30;2.15;;;21.20;99.90;;;;;;4843575;29;20042;-77
2022/08/21 00:35:35;;;;;;;5.70;2.50;;;21.20;99.90;;;;;;4842125;29;20053;-77
2022/08/21 00:38:04;;;;;;;3.65;2.35;;;21.20;99.90;;;;;;4808321;29;20103;-77
2022/08/21 00:40:36;;;;;;;3.30;2.45;;;21.10;99.90;;;;;;4823273;29;20519;-77
2022/08/21 00:43:06;;;;;;;6.15;3.00;;;21.10;99.90;;;;;;4821096;29;20137;-77
2022/08/21 00:45:33;;;;;;;4.40;2.75;;;21.10;99.90;;;;;;4805462;29;20047;-77
2022/08/21 00:48:01;;;;;;;6.80;2.95;;;21.10;99.90;;;;;;4799401;29;20487;-77
2022/08/21 00:50:33;;;;;;;4.65;2.92;;;21.10;99.90;;;;;;4803547;29;20512;-77
2022/08/21 00:53:02;;;;;;;3.10;2.47;;;21.10;99.90;;;;;;4783845;29;20057;-77
2022/08/21 00:55:31;;;;;;;5.78;2.83;;;21.10;99.90;;;;;;4821955;29;20054;-77
2022/08/21 00:58:01;;;;;;;5.53;3.00;;;21.10;99.90;;;;;;4800253;29;20071;-77
2022/08/21 01:00:33;;;;;;;4.13;2.78;;;21.00;99.90;;;;;;4804083;29;20054;-77
2022/08/21 01:03:06;;;;;;;7.80;3.20;;;21.00;99.90;;;;;;4800286;29;20062;-77
2022/08/21 01:05:35;;;;;;;5.45;2.90;;;21.00;99.90;;;;;;4801598;29;20066;-77
2022/08/21 01:08:04;;;;;;;5.80;3.45;;;21.00;99.90;;;;;;4804915;29;20046;-77
2022/08/21 01:10:31;;;;;;;5.18;2.83;;;21.00;99.90;;;;;;4801732;29;20462;-77
2022/08/21 01:13:01;;;;;;;3.63;2.95;;;21.00;99.90;;;;;;4804579;29;20047;-77
2022/08/21 01:15:32;;;;;;;2.97;2.33;;;21.00;99.90;;;;;;4805623;29;20051;-77
2022/08/21 01:18:00;;;;;;;3.58;2.53;;;20.90;99.90;;;;;;4789714;29;20051;-77
2022/08/21 01:20:27;;;;;;;3.65;2.70;;;20.90;99.90;;;;;;4799053;29;20419;-77
2022/08/21 01:23:00;;;;;;;3.53;2.20;;;20.90;99.90;;;;;;4806832;29;20042;-77
2022/08/21 01:25:27;;;;;;;5.53;2.35;;;20.90;99.90;;;;;;4802797;29;20381;-77
2022/08/21 01:27:55;;;;;;;3.45;2.17;;;20.90;99.90;;;;;;4804328;29;20059;-77
2022/08/21 01:30:25;;;;;;;4.60;2.10;;;20.80;99.90;;;;;;4814994;29;20060;-78
2022/08/21 01:32:53;;;;;;;4.05;1.95;;;20.80;99.90;;;;;;4787968;29;20071;-78
2022/08/21 01:35:21;;;;;;;4.93;2.90;;;20.70;99.90;;;;;;4800195;29;20071;-78
2022/08/21 01:37:49;;;;;;;4.43;2.53;;;20.80;99.90;;;;;;4830536;29;20066;-78
2022/08/21 01:40:17;;;;;;;6.45;2.50;;;20.80;99.90;;;;;;4822920;29;20085;-78
2022/08/21 01:42:45;;;;;;;3.03;1.88;;;20.80;99.90;;;;;;4842834;29;20065;-78
2022/08/21 01:45:14;;;;;;;3.88;1.95;;;20.80;99.90;;;;;;4843023;29;20045;-78
2022/08/21 01:47:42;;;;;;;3.22;2.20;;;20.80;99.90;;;;;;4842592;29;20406;-78
2022/08/21 01:50:14;;;;;;;5.30;2.10;;;20.70;99.90;;;;;;4841443;29;20042;-77
2022/08/21 01:52:41;;;;;;;3.72;2.50;;;20.70;99.90;;;;;;4846525;29;20133;-77
2022/08/21 01:55:10;;;;;;;4.05;2.08;;;20.80;99.90;;;;;;4824301;29;20050;-77
2022/08/21 01:57:37;;;;;;;3.60;2.00;;;20.80;99.90;;;;;;4823349;29;20129;-77
2022/08/21 02:00:08;;;;;;;3.65;2.22;;;20.80;99.90;;;;;;4804692;29;20038;-77
2022/08/21 02:02:38;;;;;;;4.15;2.00;;;20.70;99.90;;;;;;4825059;29;20043;-77
2022/08/21 02:05:07;;;;;;;3.42;2.10;;;20.70;99.90;;;;;;4823513;29;20111;-77
2022/08/21 02:07:45;;;;;;;5.97;2.47;;;20.70;99.90;;;;;;4813812;29;20402;-77
2022/08/21 02:10:15;;;;;;;5.45;2.33;;;20.70;99.90;;;;;;4824670;29;20077;-77
2022/08/21 02:12:42;;;;;;;4.28;2.50;;;20.70;99.90;;;;;;4821237;29;20049;-77
2022/08/21 02:15:10;;;;;;;4.10;2.80;;;20.70;99.90;;;;;;4825429;29;20137;-77
2022/08/21 02:17:49;;;;;;;4.15;2.60;;;20.60;99.90;;;;;;4831203;29;20054;-77
2022/08/21 02:20:27;;;;;;;3.88;2.88;;;20.70;99.90;;;;;;4824682;29;20042;-78
2022/08/21 02:22:54;;;;;;;3.72;2.53;;;20.70;99.90;;;;;;4842842;29;20045;-78
2022/08/21 02:25:23;;;;;;;4.85;3.40;;;20.60;99.90;;;;;;4824425;29;20521;-77
2022/08/21 02:27:51;;;;;;;4.88;2.60;;;20.60;99.90;;;;;;4840602;29;20042;-77
2022/08/21 02:30:29;;;;;;;5.13;3.03;;;20.60;99.90;;;;;;4841138;29;20042;-77
2022/08/21 02:32:57;;;;;;;3.78;2.58;;;20.60;99.90;;;;;;4824212;29;20053;-77
2022/08/21 02:35:27;;;;;;;6.30;3.55;;;20.50;99.90;;;;;;4841391;29;20105;-78
2022/08/21 02:37:57;;;;;;;6.97;3.42;;;20.50;99.90;;;;;;4824292;29;20062;-78
2022/08/21 02:40:28;;;;;;;6.45;3.72;;;20.50;99.90;;;;;;4824379;29;20038;-78
2022/08/21 02:42:56;;;;;;;8.25;3.38;;;20.60;99.90;;;;;;4821161;29;20495;-77
2022/08/21 02:45:24;;;;;;;9.85;4.07;;;20.50;99.90;;;;;;4841205;29;20056;-77
2022/08/21 02:47:55;;;;;;;5.28;3.25;;;20.50;99.90;;;;;;4842427;29;20053;-77
2022/08/21 02:50:28;;;;;;;6.27;3.60;;;20.40;99.90;;;;;;4825943;29;20054;-78
2022/08/21 02:52:57;;;;;;;6.60;3.45;;;20.40;99.90;;;;;;4833522;29;20053;-78
2022/08/21 02:55:27;;;;;;;7.75;4.05;;;20.40;99.90;;;;;;4824822;29;20114;-78
2022/08/21 02:57:55;;;;;;;7.72;3.53;;;20.40;99.90;;;;;;4841092;29;20042;-77
2022/08/21 03:00:24;;;;;;;6.13;3.72;;;20.50;99.90;;;;;;4821702;29;20119;-77
2022/08/21 03:02:53;;;;;;;9.27;3.55;;;20.40;99.90;;;;;;4815761;29;20045;-77
2022/08/21 03:05:20;;;;;;;6.07;3.42;;;20.40;99.90;;;;;;4841443;29;20046;-78
2022/08/21 03:07:47;;;;;;;7.57;3.25;;;20.40;99.90;;;;;;4844672;29;20220;-78
2022/08/21 03:10:16;;;;;;;6.40;3.78;;;20.40;99.90;;;;;;4824445;29;20133;-78
2022/08/21 03:12:43;;;;;;;5.85;3.60;;;20.40;99.90;;;;;;4837819;29;20057;-78
2022/08/21 03:15:14;;;;;;;7.05;3.80;;;20.40;99.90;;;;;;4827765;29;20050;-77
2022/08/21 03:17:41;;;;;;;8.23;4.10;;;20.50;99.90;;;;;;4841221;29;20069;-77
2022/08/21 03:20:09;;;;;;;8.88;4.05;;;20.40;99.90;;;;;;4812886;29;20042;-77
2022/08/21 03:22:36;;;;;;;6.53;3.30;;;20.40;99.90;;;;;;4845405;29;20041;-77
2022/08/21 03:25:05;;;;;;;6.75;3.78;;;20.40;99.90;;;;;;4828142;29;20401;-77
2022/08/21 03:27:33;;;;;;;7.53;3.75;;;20.40;99.90;;;;;;4826223;29;20054;-78
2022/08/21 03:30:03;;;;;;;7.72;4.10;;;20.30;99.90;;;;;;4843799;29;20113;-77
2022/08/21 03:32:31;;;;;;;8.13;3.75;;;20.30;99.90;;;;;;4828704;29;20528;-78
2022/08/21 03:35:00;;;;;;;8.40;3.67;;;20.30;99.90;;;;;;4826817;29;20486;-78
2022/08/21 03:37:27;;;;;;;8.15;4.05;;;20.30;99.90;;;;;;4842046;29;20470;-78
2022/08/21 03:39:55;;;;;;;8.00;4.20;;;20.30;99.90;;;;;;4845182;29;20056;-78
2022/08/21 03:42:23;;;;;;;7.28;3.88;;;20.20;99.90;;;;;;4829002;29;20417;-78
2022/08/21 03:44:50;;;;;;;7.07;4.05;;;20.30;99.90;;;;;;4840410;29;20050;-78
2022/08/21 03:47:18;;;;;;;6.38;3.80;;;20.30;99.90;;;;;;4842887;29;20054;-78
2022/08/21 03:49:45;;;;;;;7.25;3.75;;;20.20;99.90;;;;;;4826081;29;20145;-78
2022/08/21 03:52:12;;;;;;;6.75;3.95;;;20.10;99.90;;;;;;4838966;29;20057;-77
2022/08/21 03:54:41;;;;;;;9.30;4.10;;;20.20;99.90;;;;;;4841477;29;20061;-77
2022/08/21 03:57:09;;;;;;;7.85;4.30;;;20.20;99.90;;;;;;4828925;29;21322;-78
2022/08/21 03:59:37;;;;;;;7.05;4.50;;;20.10;99.90;;;;;;4826012;29;20396;-77
2022/08/21 04:02:06;;;;;;;7.80;4.10;;;20.20;99.90;;;;;;4813174;29;20383;-78
2022/08/21 04:04:34;;;;;;;8.25;4.40;;;20.20;99.90;;;;;;4843261;29;20042;-77
2022/08/21 04:07:01;;;;;;;6.47;3.90;;;20.20;99.90;;;;;;4804903;29;20140;-78
2022/08/21 04:09:29;;;;;;;6.43;3.75;;;20.20;99.90;;;;;;4828916;29;20089;-78
2022/08/21 04:11:57;;;;;;;9.40;4.65;;;20.20;99.90;;;;;;4813047;29;20058;-78
2022/08/21 04:14:26;;;;;;;9.98;4.60;;;20.20;99.90;;;;;;4818888;29;20510;-77
2022/08/21 04:16:53;;;;;;;8.30;4.68;;;20.20;99.90;;;;;;4831878;29;20050;-78
2022/08/21 04:19:20;;;;;;;9.60;4.55;;;20.20;99.90;;;;;;4827272;29;20045;-78
2022/08/21 04:21:49;;;;;;;7.78;3.78;;;20.20;99.90;;;;;;4826843;29;20505;-78
2022/08/21 04:24:19;;;;;;;9.00;3.83;;;20.20;99.90;;;;;;4827475;29;20387;-78
2022/08/21 04:26:46;;;;;;;8.07;3.63;;;20.10;99.90;;;;;;4825000;29;20053;-78
2022/08/21 04:29:14;;;;;;;8.70;3.75;;;20.10;99.90;;;;;;4844158;29;20382;-77
2022/08/21 04:31:43;;;;;;;8.43;4.63;;;20.10;99.90;;;;;;4812189;29;20518;-77
2022/08/21 04:34:10;;;;;;;7.93;4.13;;;20.10;99.90;;;;;;4824715;29;20049;-78
2022/08/21 04:36:37;;;;;;;9.25;4.35;;;20.10;99.90;;;;;;4825813;29;20046;-78
2022/08/21 04:39:05;;;;;;;9.98;4.88;;;20.20;99.90;;;;;;4823583;29;20186;-77
2022/08/21 04:41:36;;;;;;;7.53;4.37;;;20.20;99.90;;;;;;4823605;29;20493;-77
2022/08/21 04:44:04;;;;;;;9.68;4.72;;;20.30;99.90;;;;;;4840602;29;20047;-77
2022/08/21 04:46:31;;;;;;;9.02;4.50;;;20.30;99.90;;;;;;4825541;29;20584;-77
2022/08/21 04:48:59;;;;;;;9.98;4.68;;;20.30;99.90;;;;;;4836184;29;20066;-77
2022/08/21 04:51:32;;;;;;;9.20;4.63;;;20.30;99.90;;;;;;4827221;29;20050;-78
2022/08/21 04:54:06;;;;;;;7.78;4.00;;;20.40;99.90;;;;;;4831965;29;20057;-78
2022/08/21 04:56:46;;;;;;;8.80;4.13;;;20.40;99.90;;;;;;4812626;29;20049;-77
2022/08/21 04:59:18;;;;;;;8.75;4.63;;;20.40;99.90;;;;;;4829610;29;20046;-77
2022/08/21 05:01:46;;;;;;;8.38;4.47;;;20.40;99.90;;;;;;4825255;29;20046;-77
2022/08/21 05:04:18;;;;;;;10.05;4.53;;;20.40;99.90;;;;;;4825946;29;20050;-78
2022/08/21 05:06:48;;;;;;;7.50;4.18;;;20.40;99.90;;;;;;4807485;29;20042;-78
2022/08/21 05:09:18;;;;;;;9.57;4.22;;;20.40;99.90;;;;;;4842082;29;20129;-77
2022/08/21 05:11:45;;;;;;;9.65;4.35;;;20.50;99.90;;;;;;4843374;29;20517;-78
2022/08/21 05:14:12;;;;;;;7.55;3.97;;;20.40;99.90;;;;;;4826184;29;20280;-77
2022/08/21 05:16:41;;;;;;;7.47;4.72;;;20.40;99.90;;;;;;4826669;29;20141;-78
2022/08/21 05:19:10;;;;;;;7.35;4.20;;;20.50;99.90;;;;;;4825380;29;20065;-77
2022/08/21 05:21:41;;;;;;;7.68;4.63;;;20.40;99.90;;;;;;4826826;29;20090;-77
2022/08/21 05:24:08;;;;;;;8.65;4.78;;;20.30;99.90;;;;;;4822806;29;20050;-77
2022/08/21 05:26:36;;;;;;;7.45;5.03;;;20.30;99.90;;;;;;4811408;29;20049;-78
2022/08/21 05:29:13;;;;;;;8.40;4.70;;;20.30;99.90;;;;;;4821921;29;20061;-78
2022/08/21 05:31:41;;;;;;;9.80;4.85;;;20.40;99.90;;;;;;4824498;29;20122;-78
2022/08/21 05:34:09;;;;;;;8.27;4.88;;;20.30;99.90;;;;;;4826359;29;20054;-78
2022/08/21 05:36:36;;;;;;;8.65;4.75;;;20.40;99.90;;;;;;4842469;29;20068;-78
2022/08/21 05:39:03;;;;;;;10.07;4.57;;;20.50;99.90;;;;;;4824406;29;20053;-77
2022/08/21 05:41:30;;;;;;;7.40;4.40;;;20.50;99.90;;;;;;4827318;29;20042;-78
2022/08/21 05:44:00;;;;;;;11.07;5.13;;;20.50;99.90;;;;;;4840737;29;20133;-77
2022/08/21 05:46:27;;;;;;;8.38;4.70;;;20.50;99.90;;;;;;4840062;29;20134;-78
2022/08/21 05:48:54;;;;;;;10.50;4.72;;;20.50;99.90;;;;;;4843252;29;20054;-78
2022/08/21 05:51:21;;;;;;;9.20;4.80;;;20.40;99.90;;;;;;4827068;29;20046;-77
2022/08/21 05:53:48;;;;;;;7.82;4.60;;;20.50;99.90;;;;;;4842397;29;20141;-77
2022/08/21 05:56:15;;;;;;;10.40;4.82;;;20.60;99.90;;;;;;4826486;29;20045;-77
2022/08/21 05:58:42;;;;;;;8.20;4.00;;;20.70;99.90;;;;;;4823810;29;20510;-78
2022/08/21 06:01:10;;;;;;;8.50;4.68;;;20.70;99.90;;;;;;4825085;29;20045;-78
2022/08/21 06:03:40;;;;;;;7.68;4.30;;;20.60;99.90;;;;;;4826714;29;20061;-78
2022/08/21 06:06:07;;;;;;;7.90;4.68;;;20.60;99.90;;;;;;4841436;29;20053;-78
2022/08/21 06:08:34;;;;;;;7.32;4.28;;;20.60;99.90;;;;;;4826709;29;20414;-78
2022/08/21 06:11:04;;;;;;;7.00;4.40;;;20.60;99.90;;;;;;4831323;29;20074;-78
2022/08/21 06:13:31;;;;;;;8.48;4.45;;;20.60;99.90;;;;;;4811975;29;20053;-77
2022/08/21 06:16:14;;;;;;;8.32;4.80;;;20.70;99.90;;;;;;4826218;29;20050;-77
2022/08/21 06:18:44;;;;;;;8.02;5.05;;;20.80;99.90;;;;;;4839658;29;20094;-77
2022/08/21 06:21:13;;;;;;;11.55;4.90;;;20.80;99.90;;;;;;4839363;29;20046;-77
2022/08/21 06:23:41;;;;;;;7.70;4.97;;;20.70;99.90;;;;;;4825786;29;20063;-78
2022/08/21 06:26:10;;;;;;;8.35;4.80;;;20.70;99.90;;;;;;4840995;29;20048;-77
2022/08/21 06:28:37;;;;;;;7.20;4.50;;;20.70;99.90;;;;;;4822429;29;20044;-77
2022/08/21 06:31:17;;;;;;;11.00;5.30;;;20.80;99.90;;;;;;4810955;29;20050;-77
2022/08/21 06:33:44;;;;;;;9.77;4.72;;;20.90;99.90;;;;;;4841360;29;20045;-77
2022/08/21 06:36:11;;;;;;;7.72;4.13;;;20.90;99.90;;;;;;4838794;29;20046;-78
2022/08/21 06:38:39;;;;;;;6.18;3.90;;;20.90;99.90;;;;;;4826379;29;20080;-77
2022/08/21 06:41:07;;;;;;;5.88;3.65;;;20.90;99.90;;;;;;4828453;29;20045;-77
2022/08/21 06:43:36;;;;;;;5.80;3.20;;;20.90;99.90;;;;;;4826208;29;20042;-77
2022/08/21 06:46:07;;;;;;;6.07;3.35;;;21.00;99.90;;;;;;4841537;29;20085;-77
2022/08/21 06:48:34;;;;;;;8.40;3.45;;;21.10;99.90;;;;;;4827201;29;20042;-77
2022/08/21 06:51:01;;;;;;;7.22;3.92;;;21.00;99.90;;;;;;4841343;29;20042;-77
2022/08/21 06:53:28;;;;;;;7.85;3.63;;;20.90;99.90;;;;;;4829461;29;20510;-78
2022/08/21 06:55:55;;;;;;;8.00;4.10;;;20.90;99.90;;;;;;4842304;29;20081;-77
2022/08/21 06:58:23;;;;;;;5.13;3.55;;;21.00;99.90;;;;;;4821234;29;20145;-77
2022/08/21 07:00:54;;;;;;;8.68;4.82;;;20.90;99.90;;;;;;4821173;29;20050;-77
2022/08/21 07:03:38;;;;;;;5.68;3.72;;;20.90;99.90;;;;;;4836700;29;20095;-77
2022/08/21 07:06:06;;;;;;;6.15;3.38;;;21.00;99.90;;;;;;4824345;29;20038;-79
2022/08/21 07:08:34;;;;;;;6.53;3.38;;;20.90;99.90;;;;;;4811237;29;20046;-78
2022/08/21 07:11:06;;;;;;;6.07;3.47;;;21.00;99.90;;;;;;4826379;29;20048;-77
2022/08/21 07:13:33;;;;;;;;;;;21.00;99.90;;;;;;4825720;29;20466;-78
2022/08/21 07:16:00;;;;;;;6.53;3.38;;;21.00;99.90;;;;;;4827563;29;20273;-78
2022/08/21 07:18:31;;;;;;;6.03;3.38;;;21.10;99.90;;;;;;4810728;29;20061;-77
2022/08/21 07:21:01;;;;;;;6.30;3.90;;;21.10;99.90;;;;;;4841085;29;20037;-78
2022/08/21 07:23:32;;;;;;;5.18;3.33;;;21.20;99.90;;;;;;4840142;29;20046;-78
2022/08/21 07:26:00;;;;;;;7.03;3.70;;;21.20;99.90;;;;;;4824530;29;20053;-78
2022/08/21 07:28:28;;;;;;;6.53;3.10;;;21.30;99.90;;;;;;4809478;29;20458;-78
2022/08/21 07:30:57;;;;;;;7.55;4.00;;;21.30;99.90;;;;;;4837625;29;20049;-78
2022/08/21 07:33:26;;;;;;;5.30;3.28;;;21.20;99.90;;;;;;4825473;29;20571;-78
2022/08/21 07:35:54;;;;;;;6.45;3.72;;;21.30;99.90;;;;;;4839757;29;20128;-78
2022/08/21 07:38:22;;;;;;;5.13;2.92;;;21.40;99.90;;;;;;4807808;29;20085;-77
2022/08/21 07:40:52;;;;;;;7.15;3.90;;;21.50;99.90;;;;;;4826256;29;20140;-77
2022/08/21 07:43:21;;;;;;;;;;;21.50;99.90;;;;;;4822567;29;20046;-76
2022/08/21 07:45:51;;;;;;;7.05;3.33;;;21.50;99.90;;;;;;4840717;29;19924;-77
2022/08/21 07:48:18;;;;;;;5.43;3.17;;;21.60;99.90;;;;;;4830208;29;20667;-78
2022/08/21 07:50:45;;;;;;;7.60;3.30;;;21.60;99.90;;;;;;4825323;29;20528;-78
2022/08/21 07:53:13;;;;;;;4.63;2.83;;;21.70;99.90;;;;;;4837803;29;20058;-78
2022/08/21 07:55:42;;;;;;;5.43;3.33;;;21.80;99.90;;;;;;4822171;29;20053;-77
2022/08/21 07:58:09;;;;;;;7.22;3.25;;;21.90;99.90;;;;;;4842252;29;21056;-78
2022/08/21 08:00:37;;;;;;;4.75;3.28;;;22.10;99.90;;;;;;4839592;29;20050;-78
2022/08/21 08:03:04;;;;;;;5.90;3.30;;;22.30;99.90;;;;;;4839232;29;20042;-78
2022/08/21 08:05:32;;;;;;;5.28;3.15;;;22.30;99.90;;;;;;4839326;29;20054;-77
2022/08/21 08:07:59;;;;;;;5.47;3.25;;;22.30;99.90;;;;;;4840468;29;20045;-79
2022/08/21 08:10:27;;;;;;;5.68;3.33;;;22.40;99.90;;;;;;4839657;29;20069;-78
2022/08/21 08:12:54;;;;;;;6.47;3.47;;;22.30;99.90;;;;;;4825188;29;20085;-78
2022/08/21 08:15:24;;;;;;;5.93;3.72;;;22.30;99.90;;;;;;4823954;29;20068;-79
2022/08/21 08:17:52;;;;;;;7.68;2.83;;;22.30;99.90;;;;;;4823442;29;20050;-78
2022/08/21 08:20:19;;;;;;;5.95;3.50;;;22.30;99.90;;;;;;4810694;29;20048;-79
2022/08/21 08:22:47;;;;;;;5.03;3.00;;;22.40;99.90;;;;;;4823748;29;20049;-78
2022/08/21 08:25:18;;;;;;;5.93;3.78;;;22.40;99.90;;;;;;4837410;29;20136;-78
2022/08/21 08:27:45;;;;;;;4.78;3.20;;;22.40;99.90;;;;;;4838284;29;22406;-78
2022/08/21 08:30:15;;;;;;;5.90;3.72;;;22.50;99.90;;;;;;4840243;29;20554;-79
2022/08/21 08:32:42;;;;;;;4.55;2.97;;;22.40;99.90;;;;;;4807770;29;20300;-79
2022/08/21 08:35:11;;;;;;;6.40;3.55;;;22.60;99.90;;;;;;4825195;29;20408;-80
2022/08/21 08:37:40;;;;;;;5.18;2.92;;;22.50;99.90;;;;;;4835954;29;20081;-78
2022/08/21 08:40:17;;;;;;;7.88;3.33;;;22.60;99.90;;;;;;4808549;29;20114;-78
2022/08/21 08:42:47;;;;;;;5.97;3.60;;;22.60;99.90;;;;;;4839161;29;20061;-78
2022/08/21 08:45:20;;;;;;;6.68;3.33;;;22.70;99.90;;;;;;4840607;29;20529;-78
2022/08/21 08:47:55;;;;;;;7.05;3.33;;;22.70;99.90;;;;;;4825048;29;20070;-78
2022/08/21 08:50:25;;;;;;;5.55;3.47;;;22.70;99.90;;;;;;4838577;29;20056;-78
2022/08/21 08:52:59;;;;;;;6.17;3.47;;;22.80;99.90;;;;;;4824793;29;20096;-77
2022/08/21 08:55:37;;;;;;;7.40;3.40;;;22.80;99.90;;;;;;4838675;29;20517;-78
2022/08/21 08:58:06;;;;;;;7.15;3.25;;;22.90;99.90;;;;;;4835683;29;20885;-78
2022/08/21 09:00:33;;;;;;;6.32;3.05;;;22.90;99.90;;;;;;4824096;29;20045;-78
2022/08/21 09:03:02;;;;;;;8.93;3.45;;;22.90;99.90;;;;;;4826977;29;20133;-78
2022/08/21 09:06:16;;;;;;;4.43;3.20;;;22.90;99.90;;;;;;4838063;29;20045;-78
2022/08/21 09:09:18;;;;;;;7.03;3.28;;;23.10;99.90;;;;;;4823170;29;20054;-77
2022/08/21 09:12:02;;;;;;;5.60;3.65;;;23.30;99.90;;;;;;4820536;29;20073;-77
2022/08/21 09:14:43;;;;;;;5.53;2.90;;;23.30;99.90;;;;;;4839141;29;20115;-78
2022/08/21 09:17:16;;;;;;;6.28;4.03;;;23.20;99.90;;;;;;4822794;29;20048;-78
2022/08/21 09:20:02;;;;;;;5.22;3.47;;;23.20;99.90;;;;;;4824165;29;20045;-78
2022/08/21 09:22:50;;;;;;;5.47;3.20;;;23.20;99.90;;;;;;4839948;29;20137;-77
2022/08/21 09:25:25;;;;;;;8.77;4.13;;;23.20;99.90;;;;;;4822559;29;20049;-78
2022/08/21 09:27:53;;;;;;;5.47;3.42;;;23.10;99.90;;;;;;4841925;29;20098;-79
2022/08/21 09:30:28;;;;;;;6.75;3.55;;;23.10;99.90;;;;;;4836020;29;20050;-78
2022/08/21 09:32:56;;;;;;;6.28;3.40;;;23.10;99.90;;;;;;4826988;29;20425;-78
2022/08/21 09:35:26;;;;;;;6.43;3.33;;;23.20;99.90;;;;;;4841092;29;20061;-79
2022/08/21 09:38:02;;;;;;;6.97;4.03;;;23.20;99.90;;;;;;4824793;29;20062;-78
2022/08/21 09:40:35;;;;;;;8.13;4.07;;;23.30;99.90;;;;;;4822603;29;20524;-78
2022/08/21 09:43:08;;;;;;;5.43;3.33;;;23.40;99.90;;;;;;4827442;29;20125;-78
2022/08/21 09:45:36;;;;;;;6.03;3.10;;;23.40;99.90;;;;;;4839460;29;20069;-78
2022/08/21 09:48:22;;;;;;;5.85;3.58;;;23.60;99.90;;;;;;4825199;29;20052;-78
2022/08/21 09:51:29;;;;;;;5.78;3.67;;;23.60;99.90;;;;;;4823499;29;20050;-78
2022/08/21 09:54:08;;;;;;;4.70;3.28;;;23.70;99.90;;;;;;4817944;29;20054;-77
2022/08/21 09:59:55;;;;;;;4.55;2.90;;;23.80;99.30;;;;;;4841528;29;20106;-78
2022/08/21 10:02:34;;;;;;;4.78;2.88;;;23.90;99.90;;;;;;4824796;29;20054;-79
2022/08/21 10:05:14;;;;;;;6.75;3.40;;;23.80;99.00;;;;;;4821408;29;20042;-77
2022/08/21 10:07:42;;;;;;;5.47;3.58;;;23.90;99.40;;;;;;4819439;29;20046;-79
2022/08/21 10:10:16;;;;;;;6.65;3.10;;;23.70;97.50;;;;;;4825671;29;20148;-78
2022/08/21 10:12:57;;;;;;;6.97;3.28;;;23.70;99.10;;;;;;4841248;29;20050;-78
2022/08/21 10:15:51;;;;;;;6.28;3.13;;;23.70;98.60;;;;;;4825261;29;20060;-78
2022/08/21 10:18:29;;;;;;;9.07;3.88;;;23.70;99.30;;;;;;4838320;29;20140;-78
2022/08/21 10:21:17;;;;;;;6.10;3.65;;;23.70;99.40;;;;;;4821487;29;20083;-78
2022/08/21 10:23:44;;;;;;;6.97;3.90;;;23.70;99.40;;;;;;4803460;29;20042;-78
2022/08/21 10:26:45;;;;;;;4.53;3.35;;;23.70;99.70;;;;;;4839284;29;20046;-78
2022/08/21 10:29:15;;;;;;;6.60;3.83;;;23.70;99.90;;;;;;4823305;29;20046;-78
2022/08/21 10:32:00;;;;;;;11.63;3.70;;;23.70;99.90;;;;;;4840947;29;20045;-78
2022/08/21 10:34:56;;;;;;;5.38;3.10;;;23.60;99.90;;;;;;4854397;29;20053;-78
2022/08/21 10:37:27;;;;;;;7.40;3.42;;;23.60;99.90;;;;;;4803588;29;20150;-78
2022/08/21 10:40:28;;;;;;;8.82;3.67;;;23.60;99.90;;;;;;4824767;29;20050;-78
2022/08/21 10:43:20;;;;;;;4.63;3.13;;;23.50;99.90;;;;;;4835538;29;20068;-78
2022/08/21 10:46:11;;;;;;;4.90;3.70;;;23.40;99.90;;;;;;4821995;29;20050;-78
2022/08/21 10:48:47;;;;;;;4.28;2.80;;;23.40;99.90;;;;;;4817538;29;20075;-78
2022/08/21 10:51:38;;;;;;;6.20;3.03;;;23.40;99.90;;;;;;4824695;29;20054;-78
2022/08/21 10:54:19;;;;;;;6.72;3.70;;;23.40;99.90;;;;;;4833011;29;20046;-77
2022/08/21 10:56:58;;;;;;;8.35;4.18;;;23.30;99.90;;;;;;4829908;29;20428;-78
2022/08/21 10:59:43;;;;;;;7.20;3.42;;;23.20;99.90;;;;;;4828979;29;20482;-78
2022/08/21 11:02:26;;;;;;;8.45;4.18;;;23.20;99.90;;;;;;4816525;29;20057;-77
2022/08/21 11:05:11;;;;;;;5.82;3.40;;;23.20;99.90;;;;;;4829639;29;20130;-77
2022/08/21 11:07:56;;;;;;;9.27;4.38;;;23.10;99.90;;;;;;4840081;29;20467;-78
2022/08/21 11:10:42;;;;;;;4.72;3.63;;;23.10;99.90;;;;;;4838980;29;20178;-78
2022/08/21 11:13:25;;;;;;;6.95;4.03;;;23.10;99.90;;;;;;4826194;29;20089;-78
2022/08/21 11:16:05;;;;;;;8.00;3.88;;;23.00;99.90;;;;;;4840204;29;20050;-78
2022/08/21 11:18:53;;;;;;;8.15;5.13;;;23.00;99.90;;;;;;4826153;29;20395;-78
2022/08/21 11:21:42;;;;;;;11.70;5.72;;;23.00;99.90;;;;;;4811292;29;20050;-77
2022/08/21 11:24:27;;;;;;;11.90;5.70;;;22.90;99.90;;;;;;4827443;29;20042;-79
2022/08/21 11:27:36;;;;;;;9.68;5.88;;;22.70;99.90;;;;;;4841376;29;20062;-78
2022/08/21 11:30:06;;;;;;;14.15;6.75;;;22.70;99.90;;;;;;4811456;29;20053;-77
2022/08/21 11:32:42;;;;;;;10.35;5.72;;;22.60;99.90;;;;;;4826192;29;20042;-76
2022/08/21 11:35:21;;;;;;;10.45;5.85;;;22.60;99.90;;;;;;4802380;29;20481;-77
2022/08/21 11:38:21;;;;;;;10.13;5.55;;;22.60;99.90;;;;;;4830048;29;20066;-78
2022/08/21 11:40:57;;;;;;;9.10;5.53;;;22.60;99.90;;;;;;4813114;29;20046;-78
2022/08/21 11:43:37;;;;;;;14.98;6.88;;;22.60;99.90;;;;;;4830039;29;20145;-75
2022/08/21 11:46:14;;;;;;;14.20;7.13;;;22.60;99.90;;;;;;4835790;29;20046;-74
2022/08/21 11:48:58;;;;;;;11.05;7.07;;;22.50;99.90;;;;;;4835987;29;20042;-73
2022/08/21 11:52:11;;;;;;;13.73;7.43;;;22.50;99.90;;;;;;4807938;29;20110;-74
2022/08/21 11:54:51;;;;;;;13.05;7.75;;;22.50;99.90;;;;;;4819286;29;20054;-74
2022/08/21 11:57:27;;;;;;;17.55;8.18;;;22.50;99.90;;;;;;4816055;29;20150;-75
2022/08/21 12:00:10;;;;;;;11.25;6.95;;;22.50;99.90;;;;;;4819500;29;20171;-75
2022/08/21 12:02:49;;;;;;;14.98;7.88;;;22.50;99.90;;;;;;4814120;29;20114;-75
2022/08/21 12:05:51;;;;;;;16.50;7.93;;;22.60;99.90;;;;;;4798862;29;20074;-75
2022/08/21 12:08:27;;;;;;;12.80;7.95;;;22.60;99.90;;;;;;4832769;29;20054;-76
2022/08/21 12:11:22;;;;;;;18.17;8.52;;;22.60;99.90;;;;;;4815575;29;20054;-76
2022/08/21 12:14:05;;;;;;;14.57;8.35;;;22.60;99.90;;;;;;4816071;29;20074;-75
2022/08/21 12:16:36;;;;;;;14.23;8.43;;;22.60;99.90;;;;;;4818461;29;20142;-76
2022/08/21 12:19:09;;;;;;;14.35;8.43;;;22.60;99.90;;;;;;4817973;29;20627;-76
2022/08/21 12:22:02;;;;;;;12.60;8.13;;;22.60;99.90;;;;;;4834161;29;20056;-76
2022/08/21 12:24:38;;;;;;;12.98;8.50;;;22.60;99.90;;;;;;4816897;29;20065;-76
2022/08/21 12:27:20;;;;;;;13.07;8.48;;;22.60;99.90;;;;;;4813136;29;20049;-76
2022/08/21 12:29:51;;;;;;;14.43;8.45;;;22.60;99.90;;;;;;4815173;29;20046;-77
2022/08/21 12:32:19;;;;;;;13.80;8.50;;;22.60;99.90;;;;;;4831076;29;20057;-77
2022/08/21 12:35:04;;;;;;;14.60;8.55;;;22.60;99.90;;;;;;4827340;29;20050;-76
2022/08/21 12:37:51;;;;;;;14.77;9.05;;;22.60;99.90;;;;;;4832393;29;20059;-77
2022/08/21 12:40:24;;;;;;;14.90;8.77;;;22.60;99.90;;;;;;4826892;29;20052;-77
2022/08/21 12:42:58;;;;;;;14.52;8.32;;;22.60;99.90;;;;;;4813641;29;20057;-77
2022/08/21 12:45:33;;;;;;;18.52;8.63;;;22.60;99.90;;;;;;4816459;29;20061;-76
2022/08/21 12:48:30;;;;;;;16.27;8.40;;;22.60;99.90;;;;;;4805207;29;20061;-77
2022/08/21 12:51:11;;;;;;;18.38;8.50;;;22.60;99.90;;;;;;4797216;29;20046;-77
2022/08/21 12:53:50;;;;;;;13.70;8.10;;;22.60;99.90;;;;;;4818593;29;20050;-78
2022/08/21 12:56:20;;;;;;;14.68;8.77;;;22.50;99.90;;;;;;4833647;29;20058;-77
2022/08/21 12:59:09;;;;;;;14.18;8.07;;;22.40;99.90;;;;;;4819391;29;20530;-77
2022/08/21 13:01:45;;;;;;;14.50;8.88;;;22.40;99.90;;;;;;4808117;29;20515;-77
2022/08/21 13:04:33;;;;;;;13.05;8.00;;;22.40;99.90;;;;;;4806620;29;20050;-76
2022/08/21 13:07:01;;;;;;;16.45;7.72;;;22.30;99.90;;;;;;4800161;29;20053;-77
2022/08/21 13:09:30;;;;;;;12.38;7.57;;;22.30;99.90;;;;;;4820507;29;20384;-78
2022/08/21 13:11:59;;;;;;;13.77;7.53;;;22.20;99.90;;;;;;4810821;29;20049;-78
2022/08/21 13:14:34;;;;;;;14.88;7.90;;;22.20;99.90;;;;;;4814850;29;20056;-78
2022/08/21 13:17:11;;;;;;;11.48;6.55;;;22.10;99.90;;;;;;4815963;29;20058;-77